Time;durP1;ratioP1;P1;durP2;ratioP2;P2;SDS_P1;SDS_P2;PMS_P1;PMS_P2;Temp;Humidity;BMP_temperature;BMP_pressure;BME280_temperature;BME280_humidity;BME280_pressure;Samples;Min_cycle;Max_cycle;Signal;HPM_P1;HPM_P2
2021/05/28 00:01:35;;;;;;;16.33;8.23;;;11.00;99.90;;;;;;4442286;32;20134;-76
2021/05/28 00:04:02;;;;;;;13.67;8.47;;;11.00;99.90;;;;;;4439815;32;20422;-76
2021/05/28 00:06:29;;;;;;;16.73;8.67;;;11.10;99.90;;;;;;4440237;32;20188;-76
2021/05/28 00:08:56;;;;;;;11.27;8.53;;;11.20;99.90;;;;;;4441736;32;20143;-76
2021/05/28 00:11:23;;;;;;;13.63;8.20;;;11.20;99.90;;;;;;4440138;32;20158;-76
2021/05/28 00:13:50;;;;;;;13.90;7.87;;;11.20;99.90;;;;;;4440193;32;20143;-76
2021/05/28 00:16:17;;;;;;;15.37;8.40;;;11.20;99.90;;;;;;4440246;32;20185;-75
2021/05/28 00:18:44;;;;;;;12.50;8.93;;;11.20;99.90;;;;;;4440119;32;20189;-78
2021/05/28 00:21:11;;;;;;;16.17;8.27;;;11.20;99.90;;;;;;4438196;32;20210;-78
2021/05/28 00:23:38;;;;;;;12.30;8.17;;;11.20;99.90;;;;;;4438166;32;20158;-78
2021/05/28 00:26:05;;;;;;;13.37;8.03;;;11.10;99.90;;;;;;4437944;32;20178;-79
2021/05/28 00:28:32;;;;;;;13.70;8.77;;;11.20;99.90;;;;;;4438096;32;20203;-79
2021/05/28 00:30:58;;;;;;;13.43;8.90;;;11.20;99.90;;;;;;4437995;32;20158;-79
2021/05/28 00:33:25;;;;;;;15.10;8.73;;;11.20;99.90;;;;;;4438124;32;20226;-79
2021/05/28 00:35:52;;;;;;;11.53;8.40;;;11.10;99.90;;;;;;4438058;32;20503;-79
2021/05/28 00:38:19;;;;;;;14.37;8.47;;;11.20;99.90;;;;;;4441446;32;20185;-79
2021/05/28 00:40:46;;;;;;;12.00;8.10;;;11.10;99.90;;;;;;4446165;32;20154;-79
2021/05/28 00:43:13;;;;;;;12.87;8.40;;;11.10;99.90;;;;;;4443268;32;20468;-79
2021/05/28 00:45:40;;;;;;;12.03;8.53;;;11.00;99.90;;;;;;4439744;32;20187;-79
2021/05/28 00:48:07;;;;;;;13.87;8.50;;;11.00;99.90;;;;;;4438561;32;20189;-79
2021/05/28 00:50:34;;;;;;;11.47;8.17;;;10.90;99.90;;;;;;4441726;32;20464;-81
2021/05/28 00:53:01;;;;;;;13.27;8.60;;;10.80;99.90;;;;;;4446741;32;20358;-79
2021/05/28 00:55:28;;;;;;;12.90;8.70;;;10.80;99.90;;;;;;4443130;32;20199;-79
2021/05/28 00:57:56;;;;;;;14.73;9.03;;;10.80;99.90;;;;;;4439746;32;20143;-79
2021/05/28 01:00:26;;;;;;;13.37;9.53;;;10.70;99.90;;;;;;4441248;32;20153;-79
2021/05/28 01:02:55;;;;;;;15.20;10.27;;;10.70;99.90;;;;;;4439210;32;20429;-79
2021/05/28 01:05:26;;;;;;;15.60;9.60;;;10.40;99.90;;;;;;4440040;32;20165;-79
2021/05/28 01:07:54;;;;;;;13.70;10.03;;;10.40;99.90;;;;;;4441189;32;20135;-79
2021/05/28 01:10:21;;;;;;;15.80;10.97;;;10.50;99.90;;;;;;4441440;32;20147;-79
2021/05/28 01:12:49;;;;;;;14.77;10.87;;;10.50;99.90;;;;;;4439461;32;20169;-79
2021/05/28 01:15:16;;;;;;;18.03;10.70;;;10.50;99.90;;;;;;4439601;32;20138;-79
2021/05/28 01:17:43;;;;;;;18.03;11.00;;;10.40;99.90;;;;;;4439605;32;20395;-79
2021/05/28 01:20:10;;;;;;;15.40;10.83;;;10.50;99.90;;;;;;4439650;32;20142;-79
2021/05/28 01:22:38;;;;;;;18.63;10.87;;;10.50;99.90;;;;;;4439698;32;20170;-78
2021/05/28 01:25:06;;;;;;;15.67;10.47;;;10.50;99.90;;;;;;4439507;32;20138;-79
2021/05/28 01:27:34;;;;;;;15.93;10.73;;;10.50;99.90;;;;;;4439570;32;20169;-79
2021/05/28 01:30:04;;;;;;;17.23;11.00;;;10.50;99.90;;;;;;4439547;32;20188;-79
2021/05/28 01:32:30;;;;;;;16.73;11.37;;;10.50;99.90;;;;;;4439717;32;20150;-78
2021/05/28 01:34:57;;;;;;;16.80;11.30;;;10.40;99.90;;;;;;4439586;32;20155;-78
2021/05/28 01:37:24;;;;;;;19.10;11.90;;;10.40;99.90;;;;;;4440956;32;20147;-78
2021/05/28 01:39:53;;;;;;;17.80;11.37;;;10.40;99.90;;;;;;4446015;32;20260;-79
2021/05/28 01:42:21;;;;;;;16.87;11.67;;;10.30;99.90;;;;;;4441372;32;20154;-79
2021/05/28 01:44:48;;;;;;;19.47;12.73;;;10.20;99.90;;;;;;4439466;32;20253;-78
2021/05/28 01:47:15;;;;;;;16.53;11.53;;;10.30;99.90;;;;;;4439617;32;20165;-78
2021/05/28 01:49:43;;;;;;;19.47;12.10;;;10.20;99.90;;;;;;4439280;32;20200;-78
2021/05/28 01:52:12;;;;;;;18.70;12.20;;;10.20;99.90;;;;;;4439351;32;20150;-78
2021/05/28 01:54:40;;;;;;;16.93;11.83;;;10.10;99.90;;;;;;4439447;32;20180;-78
2021/05/28 01:57:09;;;;;;;17.57;12.20;;;10.10;99.90;;;;;;4441486;32;20139;-78
2021/05/28 01:59:36;;;;;;;23.53;13.17;;;9.90;99.90;;;;;;4443662;32;20142;-78
2021/05/28 02:02:04;;;;;;;17.87;12.33;;;10.00;99.90;;;;;;4442068;32;20147;-78
2021/05/28 02:04:31;;;;;;;17.50;12.37;;;10.00;99.90;;;;;;4441602;32;20142;-78
2021/05/28 02:06:58;;;;;;;18.50;12.10;;;10.00;99.90;;;;;;4441948;32;20222;-78
2021/05/28 02:09:26;;;;;;;20.10;12.77;;;9.90;99.90;;;;;;4442808;32;20468;-78
2021/05/28 02:11:53;;;;;;;20.33;12.67;;;9.90;99.90;;;;;;4441632;32;20150;-78
2021/05/28 02:14:20;;;;;;;19.27;13.10;;;9.90;99.90;;;;;;4443158;32;20135;-78
2021/05/28 02:16:47;;;;;;;18.17;12.17;;;9.90;99.90;;;;;;4444829;32;20429;-78
2021/05/28 02:19:14;;;;;;;17.63;12.40;;;9.90;99.90;;;;;;4448871;32;20149;-78
2021/05/28 02:21:40;;;;;;;16.90;11.87;;;9.80;99.90;;;;;;4441423;32;20138;-78
2021/05/28 02:24:12;;;;;;;17.50;12.13;;;9.80;99.90;;;;;;4441663;32;20131;-78
2021/05/28 02:26:39;;;;;;;19.13;12.33;;;9.80;99.90;;;;;;4443477;32;20233;-78
2021/05/28 02:29:06;;;;;;;19.27;12.63;;;9.80;99.90;;;;;;4440916;32;20275;-78
2021/05/28 02:31:33;;;;;;;17.60;12.03;;;9.80;99.90;;;;;;4441068;32;20213;-78
2021/05/28 02:34:00;;;;;;;18.63;12.50;;;9.80;99.90;;;;;;4443117;32;20164;-78
2021/05/28 02:36:27;;;;;;;18.00;12.77;;;9.80;99.90;;;;;;4441988;32;20135;-78
2021/05/28 02:38:53;;;;;;;20.77;12.33;;;9.80;99.90;;;;;;4441559;32;20460;-78
2021/05/28 02:41:20;;;;;;;18.03;12.30;;;9.80;99.90;;;;;;4442275;32;20192;-78
2021/05/28 02:43:47;;;;;;;18.30;12.20;;;9.80;99.90;;;;;;4441439;32;20143;-79
2021/05/28 02:46:15;;;;;;;17.90;12.40;;;9.80;99.90;;;;;;4442999;32;20399;-78
2021/05/28 02:48:42;;;;;;;19.10;12.73;;;9.90;99.90;;;;;;4441236;32;20158;-78
2021/05/28 02:51:12;;;;;;;19.57;12.70;;;9.70;99.90;;;;;;4442868;32;20387;-79
2021/05/28 02:53:39;;;;;;;18.53;12.57;;;9.70;99.90;;;;;;4441420;32;20182;-79
2021/05/28 02:56:06;;;;;;;20.47;13.40;;;9.70;99.90;;;;;;4444297;32;20150;-79
2021/05/28 02:58:33;;;;;;;18.70;12.70;;;9.70;99.90;;;;;;4452327;32;20150;-79
2021/05/28 03:01:00;;;;;;;18.80;12.87;;;9.60;99.90;;;;;;4447698;32;20214;-78
2021/05/28 03:03:27;;;;;;;19.00;12.33;;;9.80;99.90;;;;;;4441134;32;20179;-79
2021/05/28 03:05:54;;;;;;;17.77;11.97;;;9.80;99.90;;;;;;4442628;32;20206;-79
2021/05/28 03:08:21;;;;;;;19.50;12.23;;;9.90;99.90;;;;;;4442591;32;20177;-79
2021/05/28 03:10:49;;;;;;;19.00;12.33;;;10.10;99.90;;;;;;4441030;32;20150;-79
2021/05/28 03:13:15;;;;;;;18.03;11.70;;;10.10;99.90;;;;;;4442504;32;20151;-79
2021/05/28 03:15:42;;;;;;;15.33;11.00;;;10.30;99.90;;;;;;4440978;32;20184;-79
2021/05/28 03:18:17;;;;;;;16.53;11.53;;;10.40;99.90;;;;;;4441020;32;20177;-79
2021/05/28 03:21:07;;;;;;;16.40;11.67;;;10.50;99.90;;;;;;4442251;32;20245;-79
2021/05/28 03:23:35;;;;;;;14.80;11.17;;;10.50;99.90;;;;;;4442701;32;20185;-78
2021/05/28 03:26:03;;;;;;;19.67;11.53;;;10.50;99.90;;;;;;4440923;32;20165;-78
2021/05/28 03:28:30;;;;;;;16.20;10.93;;;10.60;99.90;;;;;;4443022;32;20449;-78
2021/05/28 03:30:58;;;;;;;15.83;11.20;;;10.80;99.90;;;;;;4442265;32;20143;-79
2021/05/28 03:33:25;;;;;;;15.10;10.83;;;10.70;99.90;;;;;;4440663;32;20139;-79
2021/05/28 03:35:52;;;;;;;17.47;10.60;;;10.90;99.90;;;;;;4440727;32;20182;-78
2021/05/28 03:38:19;;;;;;;13.53;10.27;;;11.10;99.90;;;;;;4443592;32;20547;-78
2021/05/28 03:40:46;;;;;;;12.17;9.67;;;11.20;99.90;;;;;;4447531;32;20150;-78
2021/05/28 03:43:13;;;;;;;13.50;9.67;;;11.30;99.90;;;;;;4440645;32;20208;-78
2021/05/28 03:45:40;;;;;;;15.77;9.90;;;11.50;99.90;;;;;;4440578;32;20213;-78
2021/05/28 03:48:07;;;;;;;13.13;9.33;;;11.50;99.90;;;;;;4440533;32;20207;-78
2021/05/28 03:50:34;;;;;;;12.90;9.33;;;11.50;99.90;;;;;;4440310;32;20532;-79
2021/05/28 03:53:01;;;;;;;13.30;9.00;;;11.60;99.90;;;;;;4440539;32;20146;-79
2021/05/28 03:55:29;;;;;;;9.87;8.37;;;11.60;99.90;;;;;;4440437;32;20157;-79
2021/05/28 03:57:55;;;;;;;12.57;8.30;;;11.80;99.90;;;;;;4439872;32;20162;-79
2021/05/28 04:00:24;;;;;;;14.90;8.57;;;11.90;99.90;;;;;;4440390;32;20187;-78
2021/05/28 04:02:52;;;;;;;11.23;7.70;;;11.90;99.90;;;;;;4440368;32;20138;-78
2021/05/28 04:05:19;;;;;;;11.77;7.53;;;11.90;99.90;;;;;;4439736;32;20146;-78
2021/05/28 04:07:47;;;;;;;11.57;8.37;;;11.90;99.90;;;;;;4440259;32;20195;-79
2021/05/28 04:10:15;;;;;;;11.43;7.93;;;11.70;99.90;;;;;;4440370;32;20184;-79
2021/05/28 04:12:42;;;;;;;12.23;7.93;;;11.70;99.90;;;;;;4445031;32;20158;-79
2021/05/28 04:15:10;;;;;;;10.37;8.10;;;11.90;99.90;;;;;;4443002;32;20154;-78
2021/05/28 04:17:37;;;;;;;12.57;7.70;;;11.90;99.90;;;;;;4456335;32;20146;-78
2021/05/28 04:20:05;;;;;;;10.17;7.50;;;11.90;99.90;;;;;;4456224;32;20138;-78
2021/05/28 04:22:32;;;;;;;9.90;7.50;;;11.90;99.90;;;;;;4456107;32;20150;-78
2021/05/28 04:24:59;;;;;;;11.43;7.80;;;11.90;99.90;;;;;;4455449;32;20141;-78
2021/05/28 04:27:26;;;;;;;10.57;7.83;;;11.80;99.90;;;;;;4454920;32;20476;-78
2021/05/28 04:29:53;;;;;;;11.10;7.80;;;11.90;99.90;;;;;;4455460;32;20157;-78
2021/05/28 04:32:19;;;;;;;9.70;7.47;;;11.70;99.90;;;;;;4456261;32;20189;-77
2021/05/28 04:34:46;;;;;;;10.23;7.50;;;11.90;99.90;;;;;;4455285;32;20146;-78
2021/05/28 04:37:13;;;;;;;12.00;7.43;;;12.00;99.90;;;;;;4455863;32;20169;-78
2021/05/28 04:39:40;;;;;;;11.30;7.87;;;12.00;99.90;;;;;;4455362;32;20154;-78
2021/05/28 04:42:07;;;;;;;9.73;7.20;;;12.00;99.90;;;;;;4455282;32;20143;-78
2021/05/28 04:44:34;;;;;;;10.63;7.27;;;12.00;99.90;;;;;;4455258;32;20168;-78
2021/05/28 04:47:01;;;;;;;9.60;7.67;;;12.10;99.90;;;;;;4455298;32;20186;-78
2021/05/28 04:49:28;;;;;;;10.67;7.60;;;11.90;99.90;;;;;;4455948;32;20158;-78
2021/05/28 04:51:55;;;;;;;10.43;7.50;;;11.80;99.90;;;;;;4451647;32;20217;-78
2021/05/28 04:54:22;;;;;;;11.13;7.10;;;11.80;99.90;;;;;;4446769;32;20146;-78
2021/05/28 04:56:49;;;;;;;11.37;7.67;;;11.90;99.90;;;;;;4439739;32;20154;-77
2021/05/28 04:59:15;;;;;;;9.90;7.13;;;12.10;99.90;;;;;;4439804;32;20146;-78
2021/05/28 05:01:42;;;;;;;10.47;7.27;;;12.30;99.90;;;;;;4439749;32;20138;-78
2021/05/28 05:04:09;;;;;;;11.53;7.03;;;12.30;99.90;;;;;;4438288;32;20564;-78
2021/05/28 05:06:36;;;;;;;9.97;7.00;;;12.40;99.90;;;;;;4439470;32;20138;-78
2021/05/28 05:09:04;;;;;;;10.43;7.17;;;12.00;99.90;;;;;;4439923;32;20138;-78
2021/05/28 05:11:30;;;;;;;11.23;7.23;;;12.30;99.90;;;;;;4439684;32;20143;-78
2021/05/28 05:13:57;;;;;;;10.50;7.53;;;12.50;99.90;;;;;;4439464;32;20139;-78
2021/05/28 05:16:24;;;;;;;9.57;6.87;;;12.20;99.90;;;;;;4439955;32;20146;-78
2021/05/28 05:19:09;;;;;;;13.87;7.80;;;12.30;99.90;;;;;;4438701;32;20170;-79
2021/05/28 05:21:36;;;;;;;12.13;7.53;;;12.20;99.90;;;;;;4438265;32;20203;-79
2021/05/28 05:24:04;;;;;;;9.77;6.73;;;12.20;99.90;;;;;;4438448;32;20435;-79
2021/05/28 05:26:31;;;;;;;11.23;7.57;;;12.40;99.90;;;;;;4437182;32;20150;-80
2021/05/28 05:28:57;;;;;;;9.97;7.47;;;12.50;99.90;;;;;;4439087;32;20780;-77
2021/05/28 05:31:25;;;;;;;11.97;7.53;;;12.70;99.90;;;;;;4439706;32;20204;-79
2021/05/28 05:33:53;;;;;;;11.73;7.30;;;12.90;99.90;;;;;;4440013;32;20169;-79
2021/05/28 05:36:21;;;;;;;8.87;6.67;;;12.90;99.90;;;;;;4441843;32;20201;-78
2021/05/28 05:38:48;;;;;;;10.50;7.50;;;12.90;99.90;;;;;;4442315;32;20166;-79
2021/05/28 05:41:15;;;;;;;11.20;7.27;;;12.90;99.90;;;;;;4442376;32;20173;-78
2021/05/28 05:43:41;;;;;;;10.83;6.77;;;12.80;99.90;;;;;;4442344;32;20158;-79
2021/05/28 05:46:09;;;;;;;10.80;7.70;;;12.80;99.90;;;;;;4442245;32;20195;-79
2021/05/28 05:48:36;;;;;;;11.63;7.97;;;12.90;99.90;;;;;;4442066;32;20136;-78
2021/05/28 05:51:07;;;;;;;11.10;7.70;;;12.80;99.90;;;;;;4442038;32;20615;-78
2021/05/28 05:53:34;;;;;;;9.77;7.17;;;12.80;99.90;;;;;;4443476;32;20202;-78
2021/05/28 05:56:01;;;;;;;10.40;7.40;;;12.90;99.90;;;;;;4442734;32;20472;-78
2021/05/28 05:58:27;;;;;;;12.23;7.97;;;13.00;99.90;;;;;;4441849;32;20159;-78
2021/05/28 06:00:54;;;;;;;12.23;7.83;;;13.10;99.90;;;;;;4450465;32;20224;-78
2021/05/28 06:03:21;;;;;;;12.20;7.20;;;13.20;99.90;;;;;;4445132;32;20202;-78
2021/05/28 06:05:48;;;;;;;10.73;7.53;;;13.30;99.90;;;;;;4441310;32;20145;-78
2021/05/28 06:08:15;;;;;;;11.60;8.53;;;13.50;99.90;;;;;;4441944;32;20515;-80
2021/05/28 06:10:42;;;;;;;11.57;7.90;;;13.40;99.90;;;;;;4442216;32;20169;-78
2021/05/28 06:13:09;;;;;;;13.00;8.07;;;13.50;99.90;;;;;;4441421;32;20207;-78
2021/05/28 06:15:36;;;;;;;11.13;8.03;;;13.30;99.90;;;;;;4443299;32;20472;-78
2021/05/28 06:18:05;;;;;;;11.73;8.10;;;13.40;99.90;;;;;;4441774;32;20213;-78
2021/05/28 06:20:32;;;;;;;11.87;7.87;;;13.60;99.90;;;;;;4443256;32;20460;-79
2021/05/28 06:23:00;;;;;;;11.70;7.80;;;13.70;99.90;;;;;;4442662;32;20217;-79
2021/05/28 06:25:28;;;;;;;13.17;8.10;;;13.80;99.90;;;;;;4441284;32;20492;-79
2021/05/28 06:27:55;;;;;;;10.07;7.30;;;14.10;99.90;;;;;;4441672;32;20161;-79
2021/05/28 06:30:22;;;;;;;9.90;6.90;;;14.20;99.90;;;;;;4443062;32;20199;-78
2021/05/28 06:32:49;;;;;;;10.23;7.10;;;14.40;99.90;;;;;;4441464;32;20146;-78
2021/05/28 06:35:16;;;;;;;9.97;6.57;;;14.40;99.90;;;;;;4441724;32;20187;-78
2021/05/28 06:37:43;;;;;;;12.90;7.10;;;14.50;99.90;;;;;;4442720;32;20158;-79
2021/05/28 06:40:11;;;;;;;10.40;6.50;;;14.70;99.90;;;;;;4441599;32;20435;-79
2021/05/28 06:42:38;;;;;;;8.53;6.33;;;14.90;99.90;;;;;;4449421;32;20154;-78
2021/05/28 06:45:07;;;;;;;10.27;5.90;;;14.90;99.90;;;;;;4441286;32;20142;-78
2021/05/28 06:47:34;;;;;;;9.17;6.63;;;14.90;99.90;;;;;;4441198;32;20449;-79
2021/05/28 06:50:01;;;;;;;12.73;6.50;;;14.70;99.90;;;;;;4441177;32;20202;-80
2021/05/28 06:52:28;;;;;;;11.87;6.13;;;14.50;99.90;;;;;;4441249;32;20181;-80
2021/05/28 06:54:55;;;;;;;9.13;5.87;;;14.70;99.90;;;;;;4441181;32;20184;-79
2021/05/28 06:57:22;;;;;;;9.53;6.20;;;14.80;99.90;;;;;;4441337;32;20404;-80
2021/05/28 06:59:49;;;;;;;8.73;6.57;;;14.80;99.90;;;;;;4441597;32;20143;-79
2021/05/28 07:02:16;;;;;;;8.67;5.67;;;14.50;99.90;;;;;;4440805;32;20130;-80
2021/05/28 07:04:43;;;;;;;10.63;6.10;;;14.50;99.90;;;;;;4440918;32;20134;-80
2021/05/28 07:07:10;;;;;;;9.17;6.60;;;14.50;99.90;;;;;;4442310;32;20200;-80
2021/05/28 07:09:41;;;;;;;9.80;6.70;;;14.40;99.90;;;;;;4441197;32;20146;-80
2021/05/28 07:12:08;;;;;;;9.70;6.20;;;14.40;99.90;;;;;;4441025;32;20154;-80
2021/05/28 07:14:35;;;;;;;9.17;6.10;;;14.50;99.90;;;;;;4440896;32;20134;-79
2021/05/28 07:17:02;;;;;;;8.47;5.83;;;14.50;99.90;;;;;;4445112;32;20237;-81
2021/05/28 07:19:29;;;;;;;7.63;5.50;;;14.50;99.90;;;;;;4445445;32;20173;-80
2021/05/28 07:21:56;;;;;;;8.57;5.57;;;14.40;99.90;;;;;;4442841;32;20155;-81
2021/05/28 07:24:23;;;;;;;6.83;5.30;;;14.50;99.90;;;;;;4448186;32;20186;-79
2021/05/28 07:26:50;;;;;;;7.23;5.40;;;14.30;99.90;;;;;;4440225;32;20354;-80
2021/05/28 07:29:18;;;;;;;8.37;5.60;;;14.10;99.90;;;;;;4443293;32;20176;-82
2021/05/28 07:31:45;;;;;;;8.57;5.90;;;14.10;99.90;;;;;;4449692;32;20181;-79
2021/05/28 07:34:12;;;;;;;8.73;5.40;;;14.10;99.90;;;;;;4455254;32;20153;-78
2021/05/28 07:36:39;;;;;;;6.60;5.20;;;14.20;99.90;;;;;;4455495;32;20450;-78
2021/05/28 07:39:06;;;;;;;5.70;4.27;;;14.40;99.90;;;;;;4456265;32;20148;-77
2021/05/28 07:41:36;;;;;;;6.27;4.77;;;14.50;99.90;;;;;;4455795;32;20181;-77
2021/05/28 07:44:05;;;;;;;6.40;4.67;;;14.80;99.90;;;;;;4455640;32;20198;-78
2021/05/28 07:46:39;;;;;;;6.77;4.00;;;15.00;99.90;;;;;;4455853;32;20360;-79
2021/05/28 07:49:06;;;;;;;4.63;3.50;;;15.10;99.90;;;;;;4454499;32;20181;-78
2021/05/28 07:51:33;;;;;;;4.40;3.20;;;15.50;99.90;;;;;;4454790;32;20233;-78
2021/05/28 07:54:00;;;;;;;4.17;3.20;;;15.70;99.90;;;;;;4454392;32;20138;-82
2021/05/28 07:56:28;;;;;;;6.20;4.10;;;15.80;99.90;;;;;;4457159;32;20362;-90
2021/05/28 07:58:55;;;;;;;5.83;3.90;;;15.90;99.90;;;;;;4454951;32;20190;-78
2021/05/28 08:01:22;;;;;;;5.00;3.53;;;16.00;99.90;;;;;;4455458;32;20164;-79
2021/05/28 08:03:49;;;;;;;4.27;2.30;;;15.90;99.90;;;;;;4457001;32;20142;-78
2021/05/28 08:06:16;;;;;;;2.50;2.20;;;15.90;99.90;;;;;;4455425;32;20214;-79
2021/05/28 08:08:43;;;;;;;4.33;2.00;;;16.00;99.90;;;;;;4455473;32;20134;-78
2021/05/28 08:11:10;;;;;;;3.00;2.07;;;15.90;99.90;;;;;;4455294;32;20160;-78
2021/05/28 08:13:37;;;;;;;2.60;2.00;;;16.00;99.30;;;;;;4455085;32;20198;-78
2021/05/28 08:16:04;;;;;;;2.60;2.30;;;16.30;99.20;;;;;;4455332;32;20237;-79
2021/05/28 08:18:31;;;;;;;3.47;2.30;;;16.60;96.80;;;;;;4457086;32;20227;-79
2021/05/28 08:20:59;;;;;;;3.50;2.80;;;17.10;96.90;;;;;;4455356;32;20142;-79
2021/05/28 08:23:26;;;;;;;2.73;2.00;;;17.40;95.10;;;;;;4455390;32;20156;-89
2021/05/28 08:25:53;;;;;;;4.50;2.37;;;17.40;92.70;;;;;;4455463;32;20194;-79
2021/05/28 08:28:21;;;;;;;2.97;2.10;;;17.70;92.50;;;;;;4455492;32;20146;-79
2021/05/28 08:30:48;;;;;;;3.43;2.60;;;18.30;92.10;;;;;;4455792;32;20173;-78
2021/05/28 08:33:15;;;;;;;2.83;2.27;;;18.60;90.90;;;;;;4455553;32;20161;-78
2021/05/28 08:35:43;;;;;;;3.10;2.53;;;18.90;87.20;;;;;;4455610;32;20461;-79
2021/05/28 08:38:11;;;;;;;2.30;2.07;;;19.40;86.00;;;;;;4455301;32;20468;-80
2021/05/28 08:40:38;;;;;;;2.63;2.40;;;19.50;83.20;;;;;;4456450;32;20134;-79
2021/05/28 08:43:06;;;;;;;3.63;2.20;;;19.00;82.80;;;;;;4456735;32;20464;-79
2021/05/28 08:45:39;;;;;;;2.83;1.97;;;17.90;84.70;;;;;;4456709;32;20417;-79
2021/05/28 08:48:08;;;;;;;2.20;1.90;;;17.00;88.40;;;;;;4455093;32;20157;-79
2021/05/28 08:50:36;;;;;;;2.27;2.00;;;17.60;88.10;;;;;;4454990;32;20180;-79
2021/05/28 08:53:06;;;;;;;2.10;1.57;;;18.30;83.80;;;;;;4454972;32;20141;-78
2021/05/28 08:55:34;;;;;;;2.80;1.80;;;19.00;82.80;;;;;;4456812;32;20499;-79
2021/05/28 08:58:05;;;;;;;3.40;1.90;;;19.30;76.80;;;;;;4455760;32;20190;-79
2021/05/28 09:00:32;;;;;;;1.87;1.60;;;19.00;78.00;;;;;;4455401;32;20189;-80
2021/05/28 09:03:22;;;;;;;2.00;1.30;;;19.00;78.20;;;;;;4454987;32;20160;-79
2021/05/28 09:06:03;;;;;;;3.73;1.80;;;19.20;75.80;;;;;;4458809;32;20134;-80
2021/05/28 09:08:33;;;;;;;2.33;1.60;;;18.90;78.90;;;;;;4459842;32;20186;-80
2021/05/28 09:11:08;;;;;;;3.73;1.60;;;18.70;80.00;;;;;;4459651;32;20142;-81
2021/05/28 09:13:44;;;;;;;2.37;1.53;;;18.20;82.90;;;;;;4458947;32;20400;-79
2021/05/28 09:16:15;;;;;;;3.20;1.70;;;17.90;79.30;;;;;;4459028;32;20212;-80
2021/05/28 09:18:52;;;;;;;2.03;1.30;;;17.70;82.30;;;;;;4459190;32;20150;-80
2021/05/28 09:21:30;;;;;;;1.87;1.37;;;17.60;82.40;;;;;;4458922;32;20343;-79
2021/05/28 09:23:59;;;;;;;3.07;1.40;;;18.20;82.10;;;;;;4459033;32;20509;-79
2021/05/28 09:26:28;;;;;;;4.87;1.47;;;18.70;77.40;;;;;;4457929;32;20139;-79
2021/05/28 09:28:55;;;;;;;1.17;1.00;;;19.10;73.30;;;;;;4457757;32;20181;-79
2021/05/28 09:31:25;;;;;;;2.43;1.10;;;19.60;71.90;;;;;;4458499;32;20142;-79
2021/05/28 09:33:55;;;;;;;1.97;1.20;;;20.40;70.20;;;;;;4458503;32;20207;-79
2021/05/28 09:36:23;;;;;;;3.70;1.30;;;20.90;68.70;;;;;;4457495;32;20146;-79
2021/05/28 09:39:09;;;;;;;2.10;1.33;;;21.00;66.90;;;;;;4457948;32;20169;-79
2021/05/28 09:41:39;;;;;;;3.03;1.30;;;20.80;66.70;;;;;;4457920;32;20138;-78
2021/05/28 09:44:32;;;;;;;2.07;1.60;;;20.20;68.40;;;;;;4458648;32;20126;-79
2021/05/28 09:47:04;;;;;;;1.40;1.00;;;19.80;68.00;;;;;;4455253;32;20174;-79
2021/05/28 09:49:34;;;;;;;1.50;1.30;;;19.50;68.40;;;;;;4458446;32;20185;-78
2021/05/28 09:52:17;;;;;;;1.67;1.40;;;18.80;69.30;;;;;;4457708;32;20530;-79
2021/05/28 09:54:59;;;;;;;2.70;1.47;;;18.60;71.10;;;;;;4457548;32;20154;-79
2021/05/28 09:57:40;;;;;;;2.53;1.30;;;18.50;73.30;;;;;;4458385;32;20150;-79
2021/05/28 10:00:20;;;;;;;2.00;1.47;;;19.10;73.90;;;;;;4455489;32;20437;-79
2021/05/28 10:02:48;;;;;;;2.73;1.60;;;19.70;73.00;;;;;;4457167;32;20142;-79
2021/05/28 10:05:24;;;;;;;1.83;1.60;;;20.00;71.60;;;;;;4458593;32;20141;-79
2021/05/28 10:07:51;;;;;;;1.67;1.20;;;20.20;69.80;;;;;;4457077;32;20161;-79
2021/05/28 10:10:18;;;;;;;2.00;1.50;;;20.10;67.80;;;;;;4457355;32;20138;-80
2021/05/28 10:12:48;;;;;;;2.07;1.27;;;19.20;69.70;;;;;;4458723;32;20153;-78
2021/05/28 10:15:15;;;;;;;1.40;1.30;;;19.90;68.20;;;;;;4457279;32;20197;-80
2021/05/28 10:17:42;;;;;;;2.03;1.30;;;19.80;66.50;;;;;;4457135;32;20177;-78
2021/05/28 10:20:09;;;;;;;1.93;1.60;;;20.40;66.90;;;;;;4457313;32;20202;-79
2021/05/28 10:22:37;;;;;;;2.10;1.30;;;20.20;64.50;;;;;;4456800;32;20149;-78
2021/05/28 10:25:06;;;;;;;1.67;1.30;;;20.70;65.60;;;;;;4457997;32;20138;-79
2021/05/28 10:27:33;;;;;;;2.40;1.40;;;21.00;61.90;;;;;;4457086;32;20161;-80
2021/05/28 10:30:12;;;;;;;2.53;1.20;;;20.50;61.90;;;;;;4456878;32;20495;-79
2021/05/28 10:32:39;;;;;;;1.20;1.03;;;20.90;61.70;;;;;;4457215;32;20508;-79
2021/05/28 10:35:16;;;;;;;1.73;1.37;;;21.50;60.40;;;;;;4457142;32;20424;-78
2021/05/28 10:37:45;;;;;;;1.30;1.10;;;21.40;59.00;;;;;;4456898;32;20158;-77
2021/05/28 10:40:25;;;;;;;1.40;1.30;;;21.30;60.50;;;;;;4457929;32;20245;-79
2021/05/28 10:43:07;;;;;;;3.43;1.30;;;21.20;61.90;;;;;;4457844;32;20149;-78
2021/05/28 10:46:02;;;;;;;1.47;1.37;;;20.50;62.80;;;;;;4456954;32;20435;-78
2021/05/28 10:51:28;;;;;;;2.93;1.40;;;19.20;69.00;;;;;;4456661;32;20184;-77
2021/05/28 10:53:55;;;;;;;1.30;1.20;;;18.60;70.90;;;;;;4393443;32;20205;-78
2021/05/28 10:56:26;;;;;;;3.60;0.80;;;18.50;72.50;;;;;;4393561;32;20174;-77
2021/05/28 10:58:58;;;;;;;1.37;1.00;;;18.30;71.80;;;;;;4393108;32;20151;-76
2021/05/28 11:01:47;;;;;;;3.10;1.10;;;18.30;71.70;;;;;;4393327;32;20548;-77
2021/05/28 11:04:21;;;;;;;3.80;1.00;;;18.20;72.20;;;;;;4392923;32;20144;-77
2021/05/28 11:07:00;;;;;;;1.03;0.90;;;18.50;73.40;;;;;;4394384;32;20505;-76
2021/05/28 11:09:47;;;;;;;1.27;0.80;;;19.00;68.10;;;;;;4392910;32;20185;-78
2021/05/28 11:12:15;;;;;;;2.20;0.87;;;19.30;67.80;;;;;;4393671;32;20186;-77
2021/05/28 11:15:16;;;;;;;1.43;0.70;;;19.70;66.30;;;;;;4392175;32;20182;-77
2021/05/28 11:18:00;;;;;;;0.93;0.60;;;19.50;66.10;;;;;;4347912;33;20236;-77
2021/05/28 11:20:39;;;;;;;3.37;0.80;;;19.20;65.50;;;;;;4347876;33;20191;-76
2021/05/28 11:23:13;;;;;;;2.43;1.10;;;19.60;65.70;;;;;;4349756;33;20160;-77
2021/05/28 11:25:48;;;;;;;2.07;1.03;;;20.00;65.30;;;;;;4348179;33;20149;-75
2021/05/28 11:28:15;;;;;;;1.87;1.10;;;20.30;64.10;;;;;;4347559;33;20144;-76
2021/05/28 11:30:44;;;;;;;2.60;1.00;;;20.30;66.20;;;;;;4368106;32;20234;-77
2021/05/28 11:33:32;;;;;;;2.33;1.00;;;20.80;64.00;;;;;;4409157;32;20406;-77
2021/05/28 11:36:00;;;;;;;2.57;1.40;;;21.00;62.20;;;;;;4407777;32;20159;-76
2021/05/28 11:38:37;;;;;;;2.90;1.50;;;20.50;66.00;;;;;;4407719;32;20188;-76
2021/05/28 11:41:04;;;;;;;2.23;1.30;;;19.70;67.80;;;;;;4408817;32;20147;-76
2021/05/28 11:43:35;;;;;;;1.90;1.40;;;19.20;70.30;;;;;;4408380;32;20166;-76
2021/05/28 11:46:03;;;;;;;1.70;1.30;;;18.80;72.40;;;;;;4409347;32;20178;-76
2021/05/28 11:48:30;;;;;;;1.77;1.13;;;18.00;77.30;;;;;;4407855;32;20560;-76
2021/05/28 11:51:01;;;;;;;1.57;1.30;;;17.60;77.50;;;;;;4407103;32;20143;-76
2021/05/28 11:53:32;;;;;;;3.10;1.20;;;17.50;78.40;;;;;;4420152;32;20169;-77
2021/05/28 11:56:00;;;;;;;1.70;1.00;;;17.60;76.20;;;;;;4455839;32;20142;-76
2021/05/28 11:58:31;;;;;;;1.10;0.90;;;17.10;77.40;;;;;;4455772;32;20138;-77
2021/05/28 12:01:01;;;;;;;1.80;1.03;;;16.70;79.00;;;;;;4457181;32;20201;-76
2021/05/28 12:03:29;;;;;;;1.83;1.20;;;17.10;79.00;;;;;;4455701;32;20181;-76
2021/05/28 12:06:04;;;;;;;1.93;1.20;;;17.60;77.40;;;;;;4455757;32;20165;-76
2021/05/28 12:08:30;;;;;;;1.90;1.13;;;17.60;75.00;;;;;;4457204;32;20357;-76
2021/05/28 12:11:05;;;;;;;1.20;1.10;;;18.60;71.60;;;;;;4455413;32;20134;-76
2021/05/28 12:13:33;;;;;;;2.07;1.10;;;20.00;70.60;;;;;;4457166;32;20350;-76
2021/05/28 12:16:04;;;;;;;2.17;0.87;;;21.60;67.10;;;;;;4456220;32;20184;-78
2021/05/28 12:18:35;;;;;;;0.97;0.83;;;22.60;60.60;;;;;;4455372;32;20189;-76
2021/05/28 12:21:07;;;;;;;1.70;0.63;;;23.20;56.40;;;;;;4455385;32;20188;-76
2021/05/28 12:23:37;;;;;;;2.00;0.93;;;23.60;53.70;;;;;;4456987;32;20146;-76
2021/05/28 12:26:11;;;;;;;0.80;0.80;;;24.30;53.70;;;;;;4454932;32;20217;-76
2021/05/28 12:28:43;;;;;;;0.90;0.85;;;24.30;53.80;;;;;;4455452;32;20210;-78
2021/05/28 12:31:16;;;;;;;2.55;1.10;;;24.80;53.90;;;;;;4456954;32;20139;-78
2021/05/28 12:33:49;;;;;;;1.00;0.90;;;25.70;51.10;;;;;;4456851;32;20210;-77
2021/05/28 12:36:18;;;;;;;1.08;0.90;;;25.90;49.40;;;;;;4455453;32;20138;-77
2021/05/28 12:38:47;;;;;;;1.30;1.10;;;25.20;48.00;;;;;;4455391;32;20173;-77
2021/05/28 12:41:20;;;;;;;1.62;0.90;;;25.20;48.70;;;;;;4455132;32;20143;-77
2021/05/28 12:43:49;;;;;;;1.08;0.85;;;25.60;47.80;;;;;;4457375;32;20147;-78
2021/05/28 12:46:24;;;;;;;1.35;0.80;;;25.70;47.10;;;;;;4455306;32;20164;-77
2021/05/28 12:48:53;;;;;;;1.23;1.00;;;26.10;48.00;;;;;;4455059;32;20160;-77
2021/05/28 12:51:32;;;;;;;1.15;1.05;;;24.90;48.60;;;;;;4457045;32;20138;-77
2021/05/28 12:54:00;;;;;;;1.25;1.00;;;25.20;50.00;;;;;;4456111;32;20543;-76